Time;durP1;ratioP1;P1;durP2;ratioP2;P2;SDS_P1;SDS_P2;PMS_P1;PMS_P2;Temp;Humidity;BMP_temperature;BMP_pressure;BME280_temperature;BME280_humidity;BME280_pressure;Samples;Min_cycle;Max_cycle;Signal;HPM_P1;HPM_P2
2021/01/23 00:01:50;;;;;;;14.90;7.92;;;;;;;1.38;100.00;97503.01;4359981;80;28586;-75
2021/01/23 00:07:52;;;;;;;17.98;8.55;;;;;;;1.00;100.00;97504.55;4336217;80;28547;-74
2021/01/23 00:13:54;;;;;;;21.48;11.05;;;;;;;1.15;100.00;97492.40;4341788;80;28630;-74
2021/01/23 00:19:57;;;;;;;26.17;12.20;;;;;;;1.20;100.00;97487.27;4358396;80;28584;-74
2021/01/23 00:26:00;;;;;;;27.48;12.47;;;;;;;1.06;100.00;97479.88;4369464;80;28585;-74
2021/01/23 00:32:02;;;;;;;30.92;13.00;;;;;;;1.13;100.00;97480.38;4351234;80;28575;-75
2021/01/23 00:38:04;;;;;;;21.27;10.88;;;;;;;1.43;100.00;97474.05;4372126;80;28565;-75
2021/01/23 00:44:06;;;;;;;25.37;12.23;;;;;;;1.53;100.00;97468.31;4348150;80;28636;-75
2021/01/23 00:50:10;;;;;;;23.35;11.33;;;;;;;1.81;100.00;97468.45;4350806;80;28630;-75
2021/01/23 00:56:12;;;;;;;27.90;11.97;;;;;;;1.61;100.00;97484.47;4342354;80;28611;-74
2021/01/23 01:02:17;;;;;;;26.90;12.65;;;;;;;1.96;100.00;97480.08;4361210;80;28585;-75
2021/01/23 01:08:20;;;;;;;22.97;11.10;;;;;;;1.93;100.00;97472.56;4348710;80;28603;-75
2021/01/23 01:14:22;;;;;;;26.42;11.75;;;;;;;1.36;100.00;97437.53;4360146;80;41055;-75
2021/01/23 01:20:25;;;;;;;19.73;10.23;;;;;;;1.60;100.00;97451.05;4387918;80;28525;-75
2021/01/23 01:26:27;;;;;;;18.75;9.03;;;;;;;1.86;100.00;97443.45;4361936;80;28571;-75
2021/01/23 01:32:29;;;;;;;18.55;8.10;;;;;;;2.27;100.00;97439.19;4352131;80;28557;-75
2021/01/23 01:38:31;;;;;;;16.02;8.08;;;;;;;2.46;100.00;97420.97;4359445;80;28549;-75
2021/01/23 01:44:33;;;;;;;16.32;7.15;;;;;;;2.65;100.00;97410.35;4343674;80;28567;-75
2021/01/23 01:50:36;;;;;;;13.00;6.17;;;;;;;2.53;100.00;97413.44;4362226;80;28592;-76
2021/01/23 01:56:41;;;;;;;12.18;6.12;;;;;;;2.48;100.00;97420.23;4350396;80;28654;-76
2021/01/23 02:03:10;;;;;;;9.98;5.30;;;;;;;2.57;100.00;97408.02;4353540;80;28643;-77
2021/01/23 02:09:37;;;;;;;8.23;4.30;;;;;;;2.67;100.00;97397.70;4347172;81;28583;-76
2021/01/23 02:15:50;;;;;;;6.05;3.22;;;;;;;2.79;100.00;97401.23;4295996;81;28934;-76
2021/01/23 02:22:25;;;;;;;6.20;3.62;;;;;;;3.16;100.00;97395.59;4385629;80;28658;-76
2021/01/23 02:28:56;;;;;;;8.25;3.95;;;;;;;3.25;100.00;97386.83;4372655;80;28596;-76
2021/01/23 02:35:01;;;;;;;7.78;3.70;;;;;;;3.33;100.00;97378.02;4370208;80;28654;-76
2021/01/23 02:41:04;;;;;;;8.58;3.62;;;;;;;3.39;100.00;97364.87;4382898;80;28600;-75
2021/01/23 02:47:06;;;;;;;7.20;3.47;;;;;;;3.38;100.00;97362.73;4289849;81;28547;-76
2021/01/23 02:53:14;;;;;;;11.83;5.72;;;;;;;3.15;100.00;97374.06;4355020;80;28615;-76
2021/01/23 02:59:18;;;;;;;10.15;4.58;;;;;;;3.19;100.00;97366.75;4340609;80;28548;-76
2021/01/23 03:05:26;;;;;;;14.15;7.35;;;;;;;3.11;100.00;97356.97;4361558;80;28598;-75
2021/01/23 03:11:28;;;;;;;9.25;5.10;;;;;;;3.12;100.00;97348.75;4335319;81;28675;-75
2021/01/23 03:17:31;;;;;;;9.93;5.75;;;;;;;3.28;100.00;97346.52;4356244;81;28643;-75
2021/01/23 03:23:33;;;;;;;13.13;6.15;;;;;;;2.78;100.00;97347.86;4359865;80;28560;-75
2021/01/23 03:29:35;;;;;;;13.48;6.08;;;;;;;2.62;100.00;97347.12;4341495;81;28610;-75
2021/01/23 03:35:38;;;;;;;14.68;7.22;;;;;;;2.83;100.00;97338.41;4367130;81;28559;-75
2021/01/23 03:41:40;;;;;;;12.15;6.87;;;;;;;2.84;100.00;97340.03;4366105;81;28547;-75
2021/01/23 03:47:42;;;;;;;11.33;6.10;;;;;;;3.15;100.00;97335.55;4357962;81;28675;-74
2021/01/23 03:53:45;;;;;;;13.78;6.50;;;;;;;3.41;100.00;97340.22;4341690;81;28596;-74
2021/01/23 03:59:47;;;;;;;10.85;5.33;;;;;;;3.33;100.00;97324.88;4357420;81;28582;-73
2021/01/23 04:05:49;;;;;;;9.50;5.42;;;;;;;3.39;100.00;97324.50;4369213;81;28643;-74
2021/01/23 04:11:51;;;;;;;9.85;5.10;;;;;;;3.43;100.00;97318.22;4368079;81;28539;-74
2021/01/23 04:17:53;;;;;;;7.87;4.50;;;;;;;3.61;100.00;97314.66;4366066;81;28642;-74
2021/01/23 04:23:55;;;;;;;8.33;4.72;;;;;;;3.88;100.00;97311.05;4344955;81;28614;-75
2021/01/23 04:29:58;;;;;;;8.43;4.40;;;;;;;4.06;100.00;97296.03;4366403;80;28654;-75
2021/01/23 04:36:02;;;;;;;7.78;3.80;;;;;;;4.27;100.00;97303.96;4365573;80;28645;-76
2021/01/23 04:42:07;;;;;;;10.15;4.78;;;;;;;4.44;100.00;97300.06;4353326;80;28566;-76
2021/01/23 04:48:09;;;;;;;9.33;4.78;;;;;;;4.52;100.00;97301.55;4377818;81;28550;-75
2021/01/23 04:54:12;;;;;;;9.93;4.80;;;;;;;4.36;100.00;97299.59;4373823;81;28756;-76
2021/01/23 05:00:15;;;;;;;6.67;3.95;;;;;;;4.28;100.00;97294.94;4352756;81;28543;-75
2021/01/23 05:06:17;;;;;;;7.62;4.15;;;;;;;4.21;100.00;97283.59;4371616;81;28565;-75
2021/01/23 05:12:36;;;;;;;7.70;3.95;;;;;;;4.22;100.00;97292.38;4373814;80;28550;-76
2021/01/23 05:18:38;;;;;;;11.88;5.22;;;;;;;4.27;100.00;97280.02;4358913;80;28658;-76
2021/01/23 05:24:52;;;;;;;10.15;5.50;;;;;;;4.25;100.00;97270.64;4368112;81;28561;-75
2021/01/23 05:30:55;;;;;;;9.95;4.90;;;;;;;3.89;100.00;97273.33;4362868;81;28589;-74
2021/01/23 05:36:59;;;;;;;8.85;4.20;;;;;;;3.92;100.00;97272.86;4350363;81;28614;-74
2021/01/23 05:43:01;;;;;;;9.25;4.50;;;;;;;3.52;100.00;97284.97;4372880;80;28681;-76
2021/01/23 05:49:03;;;;;;;9.98;4.90;;;;;;;3.69;100.00;97276.30;4355506;81;28615;-76
2021/01/23 05:55:06;;;;;;;6.30;4.08;;;;;;;3.86;100.00;97275.13;4362908;80;28552;-77
2021/01/23 06:01:16;;;;;;;7.75;5.03;;;;;;;3.80;100.00;97266.73;4350784;81;28555;-77
2021/01/23 06:07:44;;;;;;;11.03;6.03;;;;;;;3.86;100.00;97253.31;4364909;81;28567;-75
2021/01/23 06:13:52;;;;;;;13.50;7.55;;;;;;;3.86;100.00;97249.33;4363509;80;28592;-76
2021/01/23 06:19:54;;;;;;;15.60;8.33;;;;;;;3.73;100.00;97261.00;4341582;81;28626;-77
2021/01/23 06:25:57;;;;;;;14.10;7.78;;;;;;;3.71;100.00;97252.98;4351863;81;28555;-76
2021/01/23 06:32:21;;;;;;;17.92;9.23;;;;;;;3.70;100.00;97263.33;4362836;81;28585;-77
2021/01/23 06:38:23;;;;;;;16.48;7.62;;;;;;;3.74;100.00;97275.11;4369152;80;28543;-76
2021/01/23 06:44:25;;;;;;;16.35;8.33;;;;;;;3.85;100.00;97271.64;4372721;80;28574;-76
2021/01/23 06:50:40;;;;;;;17.05;9.38;;;;;;;3.92;100.00;97260.09;4371728;81;28547;-76
2021/01/23 06:56:47;;;;;;;14.53;8.70;;;;;;;3.93;100.00;97264.37;4359605;81;28548;-76
2021/01/23 07:02:50;;;;;;;20.97;9.60;;;;;;;3.98;100.00;97265.29;4360387;80;28578;-76
2021/01/23 07:08:52;;;;;;;15.83;8.03;;;;;;;3.90;100.00;97261.64;4363516;80;28550;-76
2021/01/23 07:14:54;;;;;;;15.93;7.83;;;;;;;3.68;100.00;97267.53;4365465;81;28551;-76
2021/01/23 07:20:56;;;;;;;18.17;8.50;;;;;;;3.83;100.00;97275.56;4364391;81;28589;-76
2021/01/23 07:26:59;;;;;;;17.98;8.68;;;;;;;3.93;100.00;97280.33;4346635;81;28593;-76
2021/01/23 07:33:02;;;;;;;14.75;8.23;;;;;;;3.97;100.00;97276.15;4353992;80;28571;-76
2021/01/23 07:39:14;;;;;;;14.90;8.48;;;;;;;4.26;100.00;97273.59;4377961;81;28579;-76
2021/01/23 07:45:17;;;;;;;15.98;8.18;;;;;;;4.16;100.00;97259.02;4377735;81;28669;-76
2021/01/23 07:51:27;;;;;;;19.07;9.85;;;;;;;3.91;100.00;97251.30;4375676;80;28582;-74
2021/01/23 07:57:29;;;;;;;15.03;8.58;;;;;;;4.11;100.00;97262.09;4367148;81;28543;-77
2021/01/23 08:03:35;;;;;;;12.93;8.10;;;;;;;4.04;100.00;97250.26;4344224;81;28551;-80
2021/01/23 08:09:37;;;;;;;14.53;7.97;;;;;;;3.94;100.00;97236.73;4371508;81;28610;-76
2021/01/23 08:15:40;;;;;;;18.40;9.05;;;;;;;3.99;100.00;97238.98;4336469;81;28573;-76
2021/01/23 08:21:42;;;;;;;16.75;8.25;;;;;;;4.04;100.00;97231.10;4373346;80;28619;-75
2021/01/23 08:27:47;;;;;;;13.78;8.73;;;;;;;4.09;100.00;97201.15;4365673;81;28571;-76
2021/01/23 08:33:56;;;;;;;14.38;7.83;;;;;;;4.27;100.00;97199.38;4365392;81;28937;-75
2021/01/23 08:40:00;;;;;;;14.63;7.75;;;;;;;4.40;100.00;97199.64;4358206;80;28627;-73
2021/01/23 08:46:03;;;;;;;14.73;7.70;;;;;;;4.45;100.00;97184.58;4352514;81;28611;-76
2021/01/23 08:52:05;;;;;;;16.32;7.70;;;;;;;4.54;100.00;97179.68;4357782;81;28647;-77
2021/01/23 09:04:25;;;;;;;8.83;5.08;;;;;;;5.49;100.00;97149.00;4447795;78;87045;-75
2021/01/23 09:10:28;;;;;;;9.50;4.58;;;;;;;5.77;100.00;97152.56;4353327;80;28600;-73
2021/01/23 09:16:30;;;;;;;7.70;4.37;;;;;;;6.08;100.00;97158.33;4350516;80;28581;-73
2021/01/23 09:22:33;;;;;;;11.22;5.45;;;;;;;6.49;100.00;97163.86;4366479;80;28613;-75
2021/01/23 09:28:35;;;;;;;10.35;5.37;;;;;;;6.81;100.00;97188.48;4369189;80;28556;-75
2021/01/23 09:34:38;;;;;;;14.00;8.00;;;;;;;6.92;100.00;97185.39;4379289;80;28537;-75
2021/01/23 09:40:40;;;;;;;13.62;8.45;;;;;;;6.80;100.00;97189.55;4373436;80;28542;-76
2021/01/23 09:46:42;;;;;;;12.93;6.83;;;;;;;6.59;100.00;97187.21;4372394;80;28581;-77
2021/01/23 09:52:44;;;;;;;14.65;7.53;;;;;;;6.68;100.00;97182.48;4379441;80;28543;-77
2021/01/23 09:58:46;;;;;;;14.58;8.43;;;;;;;6.56;100.00;97172.48;4372095;80;28622;-79
2021/01/23 10:04:49;;;;;;;13.00;7.50;;;;;;;6.63;100.00;97178.45;4369118;80;28659;-79
2021/01/23 10:10:51;;;;;;;14.55;7.85;;;;;;;6.66;100.00;97195.81;4252754;82;28616;-78
2021/01/23 10:16:53;;;;;;;13.30;7.00;;;;;;;6.52;100.00;97182.86;4255681;82;28580;-80
2021/01/23 10:22:55;;;;;;;17.95;8.90;;;;;;;6.51;100.00;97179.13;4252667;82;28590;-77
2021/01/23 10:28:58;;;;;;;20.65;10.43;;;;;;;6.72;100.00;97203.34;4278180;82;28552;-75
2021/01/23 10:35:01;;;;;;;14.23;9.33;;;;;;;7.02;100.00;97208.72;4273738;82;28552;-75
2021/01/23 10:41:04;;;;;;;18.60;10.00;;;;;;;7.47;100.00;97190.65;4189045;83;28548;-78
2021/01/23 10:47:07;;;;;;;17.98;8.88;;;;;;;7.60;100.00;97196.92;4258702;82;28540;-75
2021/01/23 10:53:10;;;;;;;16.45;8.95;;;;;;;7.60;100.00;97196.92;4273958;81;28588;-75
2021/01/23 10:59:12;;;;;;;20.15;10.75;;;;;;;7.65;100.00;97171.53;4200959;83;28596;-73
2021/01/23 11:05:15;;;;;;;18.17;9.28;;;;;;;7.76;100.00;97169.73;4184693;83;28587;-76
2021/01/23 11:11:19;;;;;;;17.73;9.53;;;;;;;7.90;100.00;97172.73;4206122;83;28545;-76
2021/01/23 11:17:20;;;;;;;16.42;8.95;;;;;;;8.33;100.00;97170.50;4330373;80;28560;-77
2021/01/23 11:23:23;;;;;;;14.35;7.80;;;;;;;8.45;100.00;97164.41;4347806;80;28555;-77
2021/01/23 11:29:26;;;;;;;12.95;6.85;;;;;;;8.56;100.00;97155.88;4337631;80;28649;-75
2021/01/23 11:35:28;;;;;;;14.45;8.05;;;;;;;8.66;100.00;97153.77;4343301;80;28620;-75
2021/01/23 11:41:31;;;;;;;16.62;8.35;;;;;;;8.61;100.00;97155.09;4334681;80;28599;-76
2021/01/23 11:47:33;;;;;;;12.15;7.33;;;;;;;8.39;100.00;97146.70;4330963;80;28657;-76
2021/01/23 11:53:35;;;;;;;14.43;7.47;;;;;;;8.44;100.00;97142.72;4343724;80;28607;-76
2021/01/23 11:59:41;;;;;;;12.47;7.15;;;;;;;8.32;100.00;97138.11;4281533;81;28620;-76
2021/01/23 12:05:43;;;;;;;11.83;6.05;;;;;;;8.07;100.00;97128.92;4262810;82;28580;-76
2021/01/23 12:11:47;;;;;;;10.38;5.60;;;;;;;8.15;100.00;97120.40;4201107;83;28585;-76
2021/01/23 12:17:50;;;;;;;13.65;6.15;;;;;;;8.16;100.00;97121.19;4252166;82;28592;-76
2021/01/23 12:23:53;;;;;;;11.60;5.70;;;;;;;8.33;100.00;97109.73;4242329;82;28605;-76
2021/01/23 12:29:55;;;;;;;13.20;5.67;;;;;;;8.56;100.00;97117.04;4250803;82;28615;-74
2021/01/23 12:35:57;;;;;;;11.22;5.78;;;;;;;8.63;100.00;97130.99;4264203;82;28589;-75
2021/01/23 12:42:00;;;;;;;9.40;5.35;;;;;;;8.61;100.00;97122.42;4235612;82;28635;-75
2021/01/23 12:48:02;;;;;;;10.95;5.55;;;;;;;8.44;100.00;97113.78;4250630;82;28637;-75
2021/01/23 12:54:05;;;;;;;6.85;3.80;;;;;;;8.47;100.00;97115.92;4247050;82;28551;-75
2021/01/23 13:00:10;;;;;;;6.55;3.77;;;;;;;8.73;100.00;97106.63;4263866;82;28715;-76
2021/01/23 13:06:13;;;;;;;9.28;4.50;;;;;;;8.93;100.00;97101.80;4257637;82;28952;-78
2021/01/23 13:12:15;;;;;;;8.73;3.98;;;;;;;8.95;100.00;97090.27;4180208;84;28578;-74
2021/01/23 13:18:18;;;;;;;6.90;3.25;;;;;;;9.04;100.00;97073.92;4320765;81;28605;-74
2021/01/23 13:24:20;;;;;;;5.60;3.02;;;;;;;9.20;100.00;97072.02;4312687;81;28570;-75
2021/01/23 13:30:23;;;;;;;6.00;2.72;;;;;;;9.34;100.00;97063.44;4317620;81;28598;-76
2021/01/23 13:36:25;;;;;;;6.05;2.90;;;;;;;9.49;100.00;97074.12;4306580;81;28545;-76
2021/01/23 13:42:27;;;;;;;5.05;2.55;;;;;;;9.63;100.00;97075.69;4317639;81;28541;-75
2021/01/23 13:48:29;;;;;;;5.75;2.80;;;;;;;9.76;100.00;97064.11;4180656;84;28641;-75
2021/01/23 13:54:31;;;;;;;4.17;2.47;;;;;;;9.70;100.00;97051.80;4299458;81;28579;-72
2021/01/23 14:00:36;;;;;;;4.55;2.42;;;;;;;9.64;100.00;97049.68;4310881;81;28656;-72
2021/01/23 14:06:38;;;;;;;5.28;2.72;;;;;;;9.48;100.00;97064.47;4320050;80;28679;-73
2021/01/23 14:12:40;;;;;;;3.72;2.02;;;;;;;9.37;100.00;97056.70;4317203;80;28556;-74
2021/01/23 14:18:43;;;;;;;2.92;1.57;;;;;;;9.18;100.00;97064.01;4270207;82;28633;-75
2021/01/23 14:24:45;;;;;;;2.02;1.10;;;;;;;9.08;100.00;97060.00;4343521;80;28555;-74
2021/01/23 14:30:47;;;;;;;1.77;1.10;;;;;;;8.97;100.00;97039.09;4311445;80;28661;-74
2021/01/23 14:36:49;;;;;;;4.05;2.00;;;;;;;8.89;100.00;97055.97;4343031;80;28632;-74
2021/01/23 14:42:54;;;;;;;4.22;1.90;;;;;;;8.84;100.00;97055.98;4321056;80;28602;-74
2021/01/23 14:48:57;;;;;;;2.98;1.60;;;;;;;8.73;100.00;97063.20;4194293;83;28554;-74
2021/01/23 14:55:00;;;;;;;2.02;1.20;;;;;;;8.64;100.00;97060.27;4234441;82;28568;-73
2021/01/23 15:01:03;;;;;;;2.10;1.22;;;;;;;8.51;100.00;97064.27;4232511;82;28655;-74
2021/01/23 15:07:05;;;;;;;3.17;1.40;;;;;;;8.37;100.00;97077.33;4303414;81;28636;-74
2021/01/23 15:13:08;;;;;;;2.98;1.40;;;;;;;8.20;100.00;97080.24;4314258;81;29001;-74
2021/01/23 15:19:10;;;;;;;3.37;1.70;;;;;;;8.11;100.00;97083.71;4314058;81;28540;-74
2021/01/23 15:25:13;;;;;;;3.85;2.17;;;;;;;8.01;100.00;97087.14;4299197;81;28608;-75
2021/01/23 15:31:16;;;;;;;6.45;3.20;;;;;;;8.04;100.00;97094.11;4311729;81;28652;-76
2021/01/23 15:37:18;;;;;;;7.08;2.92;;;;;;;8.08;100.00;97099.75;4262627;82;28560;-77
2021/01/23 15:43:21;;;;;;;5.95;3.08;;;;;;;8.03;100.00;97105.89;4256995;82;28638;-73
2021/01/23 15:49:23;;;;;;;5.80;2.62;;;;;;;7.94;100.00;97102.11;4301852;81;28605;-74
2021/01/23 15:55:25;;;;;;;4.80;2.62;;;;;;;7.77;100.00;97122.37;4323834;81;28547;-73
2021/01/23 16:01:29;;;;;;;5.75;2.67;;;;;;;7.62;100.00;97112.39;4328562;80;28586;-73
2021/01/23 16:07:31;;;;;;;4.42;2.50;;;;;;;7.44;100.00;97097.05;4393539;80;28569;-73
2021/01/23 16:13:34;;;;;;;5.08;2.70;;;;;;;7.25;100.00;97086.80;4383573;79;28571;-74
2021/01/23 16:19:37;;;;;;;7.05;3.08;;;;;;;7.24;100.00;97086.52;4367476;80;28558;-73
2021/01/23 16:25:39;;;;;;;5.92;2.87;;;;;;;7.05;100.00;97080.76;4388363;80;28618;-74
2021/01/23 16:31:42;;;;;;;5.28;2.58;;;;;;;6.75;100.00;97099.48;4371044;80;28618;-74
2021/01/23 16:37:45;;;;;;;15.63;8.13;;;;;;;6.80;100.00;97108.08;4364052;80;28552;-73
2021/01/23 16:43:47;;;;;;;16.52;8.35;;;;;;;6.70;100.00;97109.59;4364795;80;28618;-76
2021/01/23 16:49:49;;;;;;;16.12;7.90;;;;;;;6.86;100.00;97095.56;4373470;80;28925;-74
2021/01/23 16:55:52;;;;;;;16.25;6.35;;;;;;;6.77;100.00;97100.06;4375639;80;28622;-75
2021/01/23 17:01:54;;;;;;;12.45;6.30;;;;;;;6.70;100.00;97106.92;4237400;82;28617;-74
2021/01/23 17:07:57;;;;;;;11.70;5.20;;;;;;;6.84;100.00;97109.98;4240332;82;28578;-75
2021/01/23 17:13:59;;;;;;;12.33;6.22;;;;;;;6.78;100.00;97116.36;4358279;80;28592;-73
2021/01/23 17:20:22;;;;;;;10.72;5.50;;;;;;;7.14;100.00;97117.19;4356252;80;28562;-73
2021/01/23 17:26:25;;;;;;;13.03;6.55;;;;;;;7.12;100.00;97125.97;4131396;85;28608;-76
2021/01/23 17:32:27;;;;;;;15.00;7.58;;;;;;;7.01;100.00;97101.05;4154095;83;28627;-75
2021/01/23 17:38:29;;;;;;;21.73;10.70;;;;;;;7.08;100.00;97133.72;4115903;85;28555;-75
2021/01/23 17:44:32;;;;;;;30.23;13.88;;;;;;;7.04;100.00;97152.63;4138002;85;28604;-77
2021/01/23 17:50:34;;;;;;;28.57;13.40;;;;;;;6.80;100.00;97153.48;4129304;85;28636;-75
2021/01/23 17:56:36;;;;;;;25.82;12.07;;;;;;;6.59;100.00;97147.16;4134500;85;28673;-76
2021/01/23 18:02:38;;;;;;;26.80;12.45;;;;;;;6.38;100.00;97169.09;4129072;85;28639;-74
2021/01/23 18:08:42;;;;;;;32.67;15.68;;;;;;;6.41;100.00;97179.80;4071727;86;28631;-73
2021/01/23 18:14:44;;;;;;;33.02;14.98;;;;;;;6.23;100.00;97179.05;3982928;88;28608;-73
2021/01/23 18:20:47;;;;;;;31.85;15.23;;;;;;;6.12;100.00;97168.80;4055828;85;28596;-74
2021/01/23 18:26:49;;;;;;;20.80;10.18;;;;;;;6.05;100.00;97174.84;4061153;86;28658;-73
2021/01/23 18:32:52;;;;;;;19.42;9.45;;;;;;;5.99;100.00;97175.81;4058627;86;28583;-73
2021/01/23 18:38:55;;;;;;;24.45;11.10;;;;;;;5.90;100.00;97182.08;4131103;85;28616;-73
2021/01/23 18:44:57;;;;;;;23.25;9.70;;;;;;;5.84;100.00;97189.75;4132223;85;28556;-73
2021/01/23 18:50:59;;;;;;;16.60;7.92;;;;;;;5.68;100.00;97186.06;4122727;85;28732;-71
2021/01/23 18:57:02;;;;;;;19.52;9.90;;;;;;;5.44;100.00;97188.89;4125255;85;28563;-73
2021/01/23 19:03:06;;;;;;;20.75;9.53;;;;;;;5.37;100.00;97189.06;4117171;86;28650;-76
2021/01/23 19:09:09;;;;;;;22.32;9.40;;;;;;;5.41;100.00;97197.39;4135009;85;28728;-77
2021/01/23 19:15:12;;;;;;;18.15;8.68;;;;;;;5.44;100.00;97214.22;4129943;85;28604;-75
2021/01/23 19:21:14;;;;;;;16.32;7.25;;;;;;;5.48;100.00;97210.03;4059391;86;28609;-75
2021/01/23 19:27:16;;;;;;;15.18;6.40;;;;;;;5.40;100.00;97215.22;4150104;85;28573;-73
2021/01/23 19:33:21;;;;;;;14.43;6.47;;;;;;;5.36;100.00;97210.62;4129646;85;28614;-74
2021/01/23 19:39:23;;;;;;;14.68;7.05;;;;;;;5.44;100.00;97214.22;4131101;85;28676;-76
2021/01/23 19:45:26;;;;;;;15.98;7.20;;;;;;;5.30;100.00;97209.22;4154165;84;28580;-75
2021/01/23 19:51:28;;;;;;;14.73;6.50;;;;;;;5.33;100.00;97187.13;4133763;85;28573;-74
2021/01/23 19:57:30;;;;;;;14.10;6.35;;;;;;;5.27;100.00;97192.39;4161844;85;28586;-75
2021/01/23 20:03:33;;;;;;;14.65;7.45;;;;;;;5.22;100.00;97189.63;4174383;85;28571;-77
2021/01/23 20:09:35;;;;;;;14.93;6.92;;;;;;;5.18;100.00;97192.50;4136598;85;28605;-81
2021/01/23 20:15:39;;;;;;;14.23;7.42;;;;;;;5.11;100.00;97190.00;4107338;85;28634;-78
2021/01/23 20:21:41;;;;;;;14.33;7.00;;;;;;;4.84;100.00;97193.77;4136616;84;28690;-76
2021/01/23 20:27:46;;;;;;;16.45;7.42;;;;;;;4.64;100.00;97195.05;4150357;85;28557;-76
2021/01/23 20:33:50;;;;;;;11.70;5.97;;;;;;;4.50;100.00;97205.16;4133313;85;28960;-76
2021/01/23 20:39:52;;;;;;;15.03;6.42;;;;;;;4.27;100.00;97204.20;4136574;85;28658;-75
2021/01/23 20:45:54;;;;;;;12.25;6.40;;;;;;;4.32;100.00;97210.11;4134175;85;28581;-74
2021/01/23 20:51:57;;;;;;;18.12;8.90;;;;;;;4.29;100.00;97213.25;4148660;85;28547;-75
2021/01/23 20:58:00;;;;;;;21.02;8.38;;;;;;;4.42;100.00;97212.19;4057526;86;28570;-76
2021/01/23 21:04:02;;;;;;;21.45;9.80;;;;;;;4.33;100.00;97216.54;4056056;86;28562;-75
2021/01/23 21:10:06;;;;;;;22.60;8.80;;;;;;;4.18;100.00;97222.89;4139761;85;28602;-77
2021/01/23 21:16:13;;;;;;;16.48;8.18;;;;;;;4.27;100.00;97236.13;4138779;85;28643;-77
2021/01/23 21:22:17;;;;;;;17.02;7.42;;;;;;;4.23;100.00;97232.83;4139709;85;28632;-78
2021/01/23 21:28:19;;;;;;;18.00;7.80;;;;;;;3.94;100.00;97244.72;4141145;85;28611;-79
2021/01/23 21:34:23;;;;;;;22.65;10.03;;;;;;;4.25;100.00;97238.72;4129903;85;28643;-78
2021/01/23 21:40:25;;;;;;;20.77;9.65;;;;;;;4.32;100.00;97244.70;4136150;85;28608;-76
2021/01/23 21:46:27;;;;;;;21.52;10.45;;;;;;;4.12;100.00;97242.44;3978782;88;28590;-75
2021/01/23 21:52:29;;;;;;;24.05;10.32;;;;;;;4.13;100.00;97241.39;4052315;86;28556;-75
2021/01/23 21:58:32;;;;;;;24.27;9.95;;;;;;;4.17;100.00;97242.02;4058283;86;28579;-75
2021/01/23 22:04:34;;;;;;;19.57;9.00;;;;;;;4.06;100.00;97232.20;4057452;86;28671;-75
2021/01/23 22:10:36;;;;;;;24.05;10.58;;;;;;;4.32;100.00;97236.72;4052583;86;28610;-75
2021/01/23 22:16:38;;;;;;;22.52;10.10;;;;;;;4.40;100.00;97236.36;4048738;87;28632;-77
2021/01/23 22:22:41;;;;;;;21.87;10.48;;;;;;;4.23;100.00;97222.19;3989080;88;28646;-78
2021/01/23 22:28:44;;;;;;;22.60;10.25;;;;;;;4.13;100.00;97218.27;4025741;88;28620;-75
2021/01/23 22:34:46;;;;;;;53.52;25.23;;;;;;;4.10;100.00;97196.11;4065807;86;28566;-77
2021/01/23 22:40:48;;;;;;;19.07;9.58;;;;;;;3.95;100.00;97184.63;4070239;86;28594;-74
2021/01/23 22:46:51;;;;;;;19.12;8.70;;;;;;;4.17;100.00;97192.81;4141404;84;28571;-74
2021/01/23 22:52:54;;;;;;;23.42;10.45;;;;;;;4.14;100.00;97187.97;4120916;86;28642;-75
2021/01/23 22:58:56;;;;;;;21.55;10.10;;;;;;;3.95;100.00;97183.30;4120915;85;28581;-75
2021/01/23 23:05:00;;;;;;;24.02;10.90;;;;;;;3.96;100.00;97162.86;4066704;86;28672;-75
2021/01/23 23:11:02;;;;;;;18.17;9.30;;;;;;;4.03;100.00;97202.10;4009214;88;28606;-75
2021/01/23 23:17:04;;;;;;;20.50;9.33;;;;;;;3.75;100.00;97192.99;4057729;86;28608;-75
2021/01/23 23:23:08;;;;;;;20.50;10.15;;;;;;;3.98;100.00;97174.88;3995094;87;28620;-76
2021/01/23 23:29:10;;;;;;;27.65;12.37;;;;;;;3.92;100.00;97163.05;4071221;86;28596;-75
2021/01/23 23:35:15;;;;;;;24.23;10.40;;;;;;;3.95;100.00;97163.36;4062929;86;28554;-75
2021/01/23 23:41:17;;;;;;;23.62;10.90;;;;;;;4.02;100.00;97162.72;4077687;86;28554;-75
2021/01/23 23:47:19;;;;;;;21.77;10.72;;;;;;;3.82;100.00;97171.09;4052856;86;28595;-76
2021/01/23 23:53:22;;;;;;;22.32;10.63;;;;;;;4.02;100.00;97160.59;4037292;87;28599;-75
2021/01/23 23:59:24;;;;;;;27.80;12.68;;;;;;;4.05;100.00;97143.63;4054239;87;28590;-75
